sensor_id;sensor_type;location;lat;lon;timestamp;pressure;altitude;pressure_sealevel;temperature;humidity
72157;BME280;60035;52.122;5.406;2023-06-14T00:00:02;101675.63;;;19.45;44.64
72157;BME280;60035;52.122;5.406;2023-06-14T00:02:30;101671.25;;;19.46;44.46
72157;BME280;60035;52.122;5.406;2023-06-14T00:04:57;101680.59;;;19.50;44.51
72157;BME280;60035;52.122;5.406;2023-06-14T00:07:36;101680.66;;;19.48;44.50
72157;BME280;60035;52.122;5.406;2023-06-14T00:10:03;101683.34;;;19.47;44.75
72157;BME280;60035;52.122;5.406;2023-06-14T00:12:31;101676.53;;;19.44;44.66
72157;BME280;60035;52.122;5.406;2023-06-14T00:14:58;101685.19;;;19.45;44.36
72157;BME280;60035;52.122;5.406;2023-06-14T00:17:25;101675.72;;;19.44;44.58
72157;BME280;60035;52.122;5.406;2023-06-14T00:20:00;101681.81;;;19.43;44.82
72157;BME280;60035;52.122;5.406;2023-06-14T00:22:26;101675.94;;;19.39;44.71
72157;BME280;60035;52.122;5.406;2023-06-14T00:24:55;101677.63;;;19.40;44.54
72157;BME280;60035;52.122;5.406;2023-06-14T00:27:22;101683.69;;;19.41;44.89
72157;BME280;60035;52.122;5.406;2023-06-14T00:29:48;101687.19;;;19.40;44.80
72157;BME280;60035;52.122;5.406;2023-06-14T00:32:15;101685.69;;;19.36;44.89
72157;BME280;60035;52.122;5.406;2023-06-14T00:34:41;101686.50;;;19.36;44.59
72157;BME280;60035;52.122;5.406;2023-06-14T00:37:08;101683.09;;;19.36;44.62
72157;BME280;60035;52.122;5.406;2023-06-14T00:39:35;101675.31;;;19.36;44.61
72157;BME280;60035;52.122;5.406;2023-06-14T00:42:01;101685.69;;;19.36;44.65
72157;BME280;60035;52.122;5.406;2023-06-14T00:44:28;101681.50;;;19.33;44.55
72157;BME280;60035;52.122;5.406;2023-06-14T00:46:54;101678.03;;;19.33;44.60
72157;BME280;60035;52.122;5.406;2023-06-14T00:49:21;101685.19;;;19.29;44.84
72157;BME280;60035;52.122;5.406;2023-06-14T00:51:47;101683.50;;;19.28;44.85
72157;BME280;60035;52.122;5.406;2023-06-14T00:54:14;101678.31;;;19.28;44.60
72157;BME280;60035;52.122;5.406;2023-06-14T00:56:42;101684.31;;;19.28;44.77
72157;BME280;60035;52.122;5.406;2023-06-14T00:59:10;101683.50;;;19.28;44.83
72157;BME280;60035;52.122;5.406;2023-06-14T01:01:37;101687.16;;;19.24;45.08
72157;BME280;60035;52.122;5.406;2023-06-14T01:04:05;101683.06;;;19.20;44.98
72157;BME280;60035;52.122;5.406;2023-06-14T01:06:58;101684.06;;;19.17;45.10
72157;BME280;60035;52.122;5.406;2023-06-14T01:09:37;101682.28;;;19.18;44.80
72157;BME280;60035;52.122;5.406;2023-06-14T01:12:20;101686.78;;;19.14;44.96
72157;BME280;60035;52.122;5.406;2023-06-14T01:14:48;101691.34;;;19.10;45.06
72157;BME280;60035;52.122;5.406;2023-06-14T01:17:14;101677.66;;;19.07;45.22
72157;BME280;60035;52.122;5.406;2023-06-14T01:19:43;101674.38;;;19.03;45.27
72157;BME280;60035;52.122;5.406;2023-06-14T01:22:11;101685.06;;;18.97;45.36
72157;BME280;60035;52.122;5.406;2023-06-14T01:24:38;101683.47;;;18.94;45.39
72157;BME280;60035;52.122;5.406;2023-06-14T01:27:07;101688.63;;;18.96;45.40
72157;BME280;60035;52.122;5.406;2023-06-14T01:29:34;101684.25;;;18.96;45.28
72157;BME280;60035;52.122;5.406;2023-06-14T01:32:03;101685.41;;;18.91;45.77
72157;BME280;60035;52.122;5.406;2023-06-14T01:34:32;101683.91;;;18.85;45.97
72157;BME280;60035;52.122;5.406;2023-06-14T01:37:00;101684.00;;;18.84;45.54
72157;BME280;60035;52.122;5.406;2023-06-14T01:39:28;101689.88;;;18.87;45.85
72157;BME280;60035;52.122;5.406;2023-06-14T01:41:54;101691.66;;;18.87;45.72
72157;BME280;60035;52.122;5.406;2023-06-14T01:44:22;101689.97;;;18.86;45.93
72157;BME280;60035;52.122;5.406;2023-06-14T01:46:50;101693.47;;;18.85;45.53
72157;BME280;60035;52.122;5.406;2023-06-14T01:49:17;101698.75;;;18.83;45.75
72157;BME280;60035;52.122;5.406;2023-06-14T01:51:44;101694.53;;;18.80;45.99
72157;BME280;60035;52.122;5.406;2023-06-14T01:54:10;101689.03;;;18.69;46.31
72157;BME280;60035;52.122;5.406;2023-06-14T01:56:37;101690.03;;;18.67;46.12
72157;BME280;60035;52.122;5.406;2023-06-14T01:59:03;101686.69;;;18.64;46.38
72157;BME280;60035;52.122;5.406;2023-06-14T02:01:30;101685.25;;;18.59;46.47
72157;BME280;60035;52.122;5.406;2023-06-14T02:03:57;101686.28;;;18.55;46.46
72157;BME280;60035;52.122;5.406;2023-06-14T02:06:24;101690.19;;;18.46;46.75
72157;BME280;60035;52.122;5.406;2023-06-14T02:08:50;101687.75;;;18.43;47.05
72157;BME280;60035;52.122;5.406;2023-06-14T02:11:17;101692.25;;;18.39;47.21
72157;BME280;60035;52.122;5.406;2023-06-14T02:13:43;101687.06;;;18.39;47.46
72157;BME280;60035;52.122;5.406;2023-06-14T02:16:10;101688.16;;;18.35;47.24
72157;BME280;60035;52.122;5.406;2023-06-14T02:18:37;101686.75;;;18.28;47.68
72157;BME280;60035;52.122;5.406;2023-06-14T02:21:03;101689.66;;;18.22;48.08
72157;BME280;60035;52.122;5.406;2023-06-14T02:23:30;101686.03;;;18.07;48.24
72157;BME280;60035;52.122;5.406;2023-06-14T02:26:00;101686.25;;;18.02;48.07
72157;BME280;60035;52.122;5.406;2023-06-14T02:28:27;101691.53;;;18.01;49.13
72157;BME280;60035;52.122;5.406;2023-06-14T02:30:53;101692.53;;;17.96;49.33
72157;BME280;60035;52.122;5.406;2023-06-14T02:33:20;101694.63;;;17.88;49.48
72157;BME280;60035;52.122;5.406;2023-06-14T02:35:46;101690.44;;;17.86;49.16
72157;BME280;60035;52.122;5.406;2023-06-14T02:38:13;101693.09;;;17.84;49.32
72157;BME280;60035;52.122;5.406;2023-06-14T02:40:40;101695.84;;;17.81;49.80
72157;BME280;60035;52.122;5.406;2023-06-14T02:43:08;101687.63;;;17.71;50.23
72157;BME280;60035;52.122;5.406;2023-06-14T02:45:35;101698.31;;;17.65;50.56
72157;BME280;60035;52.122;5.406;2023-06-14T02:48:02;101696.13;;;17.56;50.93
72157;BME280;60035;52.122;5.406;2023-06-14T02:50:28;101699.06;;;17.48;51.15
72157;BME280;60035;52.122;5.406;2023-06-14T02:52:56;101694.22;;;17.40;50.69
72157;BME280;60035;52.122;5.406;2023-06-14T02:55:23;101696.88;;;17.39;51.28
72157;BME280;60035;52.122;5.406;2023-06-14T02:57:49;101701.50;;;17.32;51.41
72157;BME280;60035;52.122;5.406;2023-06-14T03:00:16;101702.25;;;17.34;51.11
72157;BME280;60035;52.122;5.406;2023-06-14T03:02:43;101704.84;;;17.34;50.92
72157;BME280;60035;52.122;5.406;2023-06-14T03:05:11;101714.56;;;17.29;51.69
72157;BME280;60035;52.122;5.406;2023-06-14T03:07:37;101716.56;;;17.22;51.62
72157;BME280;60035;52.122;5.406;2023-06-14T03:10:08;101713.41;;;17.15;51.89
72157;BME280;60035;52.122;5.406;2023-06-14T03:12:35;101717.84;;;17.13;51.97
72157;BME280;60035;52.122;5.406;2023-06-14T03:15:03;101718.88;;;17.09;52.46
72157;BME280;60035;52.122;5.406;2023-06-14T03:17:30;101725.34;;;16.99;53.09
72157;BME280;60035;52.122;5.406;2023-06-14T03:20:00;101721.25;;;16.93;53.67
72157;BME280;60035;52.122;5.406;2023-06-14T03:22:27;101724.25;;;16.82;53.86
72157;BME280;60035;52.122;5.406;2023-06-14T03:24:54;101722.13;;;16.72;54.33
72157;BME280;60035;52.122;5.406;2023-06-14T03:27:21;101719.75;;;16.67;54.30
72157;BME280;60035;52.122;5.406;2023-06-14T03:29:48;101729.22;;;16.66;54.13
72157;BME280;60035;52.122;5.406;2023-06-14T03:32:14;101723.97;;;16.68;54.28
72157;BME280;60035;52.122;5.406;2023-06-14T03:34:41;101725.66;;;16.69;53.91
72157;BME280;60035;52.122;5.406;2023-06-14T03:37:08;101729.13;;;16.70;53.68
72157;BME280;60035;52.122;5.406;2023-06-14T03:39:34;101729.94;;;16.70;53.46
72157;BME280;60035;52.122;5.406;2023-06-14T03:42:01;101732.66;;;16.67;53.57
72157;BME280;60035;52.122;5.406;2023-06-14T03:44:27;101731.88;;;16.65;53.48
72157;BME280;60035;52.122;5.406;2023-06-14T03:46:54;101733.56;;;16.66;53.67
72157;BME280;60035;52.122;5.406;2023-06-14T03:49:21;101739.63;;;16.65;53.77
72157;BME280;60035;52.122;5.406;2023-06-14T03:51:47;101733.56;;;16.66;53.69
72157;BME280;60035;52.122;5.406;2023-06-14T03:54:17;101743.19;;;16.62;54.41
72157;BME280;60035;52.122;5.406;2023-06-14T03:57:04;101748.28;;;16.64;53.95
72157;BME280;60035;52.122;5.406;2023-06-14T03:59:32;101749.97;;;16.65;53.81
72157;BME280;60035;52.122;5.406;2023-06-14T04:01:58;101743.91;;;16.66;54.08
72157;BME280;60035;52.122;5.406;2023-06-14T04:04:25;101751.75;;;16.64;53.92
72157;BME280;60035;52.122;5.406;2023-06-14T04:06:56;101754.25;;;16.66;53.95
72157;BME280;60035;52.122;5.406;2023-06-14T04:09:25;101758.47;;;16.69;53.75
72157;BME280;60035;52.122;5.406;2023-06-14T04:11:55;101767.91;;;16.70;54.16
72157;BME280;60035;52.122;5.406;2023-06-14T04:14:21;101765.38;;;16.68;54.21
72157;BME280;60035;52.122;5.406;2023-06-14T04:16:49;101760.09;;;16.71;54.20
72157;BME280;60035;52.122;5.406;2023-06-14T04:19:15;101772.88;;;16.74;53.81
72157;BME280;60035;52.122;5.406;2023-06-14T04:21:42;101763.44;;;16.73;53.95
72157;BME280;60035;52.122;5.406;2023-06-14T04:24:09;101767.72;;;16.74;53.94
72157;BME280;60035;52.122;5.406;2023-06-14T04:26:41;101768.50;;;16.76;53.89
72157;BME280;60035;52.122;5.406;2023-06-14T04:29:11;101768.31;;;16.81;53.91
72157;BME280;60035;52.122;5.406;2023-06-14T04:31:43;101769.16;;;16.81;53.77
72157;BME280;60035;52.122;5.406;2023-06-14T04:34:11;101767.19;;;16.87;53.75
72157;BME280;60035;52.122;5.406;2023-06-14T04:36:43;101775.88;;;16.86;53.61
72157;BME280;60035;52.122;5.406;2023-06-14T04:39:16;101768.81;;;16.89;53.82
72157;BME280;60035;52.122;5.406;2023-06-14T04:41:44;101770.56;;;16.89;54.03
72157;BME280;60035;52.122;5.406;2023-06-14T04:44:11;101772.16;;;16.93;53.98
72157;BME280;60035;52.122;5.406;2023-06-14T04:46:39;101775.41;;;16.98;53.84
72157;BME280;60035;52.122;5.406;2023-06-14T04:49:15;101775.09;;;17.06;53.84
72157;BME280;60035;52.122;5.406;2023-06-14T04:51:42;101782.78;;;17.07;53.79
72157;BME280;60035;52.122;5.406;2023-06-14T04:54:10;101782.59;;;17.12;53.76
72157;BME280;60035;52.122;5.406;2023-06-14T04:56:40;101784.16;;;17.16;53.67
72157;BME280;60035;52.122;5.406;2023-06-14T04:59:06;101789.38;;;17.14;53.96
72157;BME280;60035;52.122;5.406;2023-06-14T05:01:34;101790.97;;;17.17;53.64
72157;BME280;60035;52.122;5.406;2023-06-14T05:04:01;101794.22;;;17.22;54.03
72157;BME280;60035;52.122;5.406;2023-06-14T05:06:28;101792.34;;;17.26;53.89
72157;BME280;60035;52.122;5.406;2023-06-14T05:08:55;101787.00;;;17.30;53.49
72157;BME280;60035;52.122;5.406;2023-06-14T05:11:21;101792.03;;;17.34;53.36
72157;BME280;60035;52.122;5.406;2023-06-14T05:13:50;101785.88;;;17.36;53.24
72157;BME280;60035;52.122;5.406;2023-06-14T05:16:17;101789.22;;;17.38;53.32
72157;BME280;60035;52.122;5.406;2023-06-14T05:18:45;101796.75;;;17.44;53.25
72157;BME280;60035;52.122;5.406;2023-06-14T05:21:13;101796.34;;;17.54;53.11
72157;BME280;60035;52.122;5.406;2023-06-14T05:23:44;101796.78;;;17.63;52.74
72157;BME280;60035;52.122;5.406;2023-06-14T05:26:11;101800.06;;;17.67;52.68
72157;BME280;60035;52.122;5.406;2023-06-14T05:28:38;101798.84;;;17.76;52.17
72157;BME280;60035;52.122;5.406;2023-06-14T05:31:04;101795.75;;;17.87;52.03
72157;BME280;60035;52.122;5.406;2023-06-14T05:33:30;101791.97;;;17.95;51.86
72157;BME280;60035;52.122;5.406;2023-06-14T05:35:57;101797.69;;;18.02;51.49
72157;BME280;60035;52.122;5.406;2023-06-14T05:38:24;101797.34;;;18.10;51.65
72157;BME280;60035;52.122;5.406;2023-06-14T05:40:51;101804.47;;;18.24;51.43
72157;BME280;60035;52.122;5.406;2023-06-14T05:43:18;101805.81;;;18.33;51.33
72157;BME280;60035;52.122;5.406;2023-06-14T05:45:44;101810.50;;;18.43;50.78
72157;BME280;60035;52.122;5.406;2023-06-14T05:48:11;101810.06;;;18.53;50.40
72157;BME280;60035;52.122;5.406;2023-06-14T05:50:37;101809.44;;;18.65;50.35
72157;BME280;60035;52.122;5.406;2023-06-14T05:53:04;101810.06;;;18.70;49.99
72157;BME280;60035;52.122;5.406;2023-06-14T05:55:30;101816.66;;;18.77;49.95
72157;BME280;60035;52.122;5.406;2023-06-14T05:57:57;101817.13;;;18.86;49.85
72157;BME280;60035;52.122;5.406;2023-06-14T06:00:23;101818.38;;;18.96;49.07
72157;BME280;60035;52.122;5.406;2023-06-14T06:02:50;101822.19;;;19.06;49.06
72157;BME280;60035;52.122;5.406;2023-06-14T06:05:17;101821.50;;;19.20;48.84
72157;BME280;60035;52.122;5.406;2023-06-14T06:07:44;101828.00;;;19.29;48.55
72157;BME280;60035;52.122;5.406;2023-06-14T06:10:11;101823.25;;;19.37;47.76
72157;BME280;60035;52.122;5.406;2023-06-14T06:12:38;101826.06;;;19.50;47.68
72157;BME280;60035;52.122;5.406;2023-06-14T06:15:05;101826.34;;;19.61;47.60
72157;BME280;60035;52.122;5.406;2023-06-14T06:17:32;101831.66;;;19.76;47.25
72157;BME280;60035;52.122;5.406;2023-06-14T06:20:19;101826.09;;;19.84;46.41
72157;BME280;60035;52.122;5.406;2023-06-14T06:22:45;101825.09;;;19.86;46.70
72157;BME280;60035;52.122;5.406;2023-06-14T06:25:11;101821.50;;;19.89;46.37
72157;BME280;60035;52.122;5.406;2023-06-14T06:27:38;101823.16;;;19.90;46.00
72157;BME280;60035;52.122;5.406;2023-06-14T06:30:07;101833.81;;;20.01;46.03
72157;BME280;60035;52.122;5.406;2023-06-14T06:32:33;101832.22;;;20.14;45.94
72157;BME280;60035;52.122;5.406;2023-06-14T06:35:00;101835.34;;;20.21;45.55
72157;BME280;60035;52.122;5.406;2023-06-14T06:37:27;101831.91;;;20.21;45.57
72157;BME280;60035;52.122;5.406;2023-06-14T06:39:53;101838.28;;;20.31;45.68
72157;BME280;60035;52.122;5.406;2023-06-14T06:42:19;101837.00;;;20.38;45.27
72157;BME280;60035;52.122;5.406;2023-06-14T06:44:47;101839.09;;;20.47;44.94
72157;BME280;60035;52.122;5.406;2023-06-14T06:47:14;101842.88;;;20.58;44.87
72157;BME280;60035;52.122;5.406;2023-06-14T06:49:41;101848.28;;;20.71;44.30
72157;BME280;60035;52.122;5.406;2023-06-14T06:52:08;101839.66;;;20.85;44.01
72157;BME280;60035;52.122;5.406;2023-06-14T06:54:34;101848.97;;;20.89;43.93
72157;BME280;60035;52.122;5.406;2023-06-14T06:57:01;101847.63;;;20.97;43.94
72157;BME280;60035;52.122;5.406;2023-06-14T06:59:28;101853.31;;;21.04;43.32
72157;BME280;60035;52.122;5.406;2023-06-14T07:01:57;101857.63;;;21.20;42.98
72157;BME280;60035;52.122;5.406;2023-06-14T07:04:23;101854.59;;;21.27;42.82
72157;BME280;60035;52.122;5.406;2023-06-14T07:06:50;101853.94;;;21.38;42.53
72157;BME280;60035;52.122;5.406;2023-06-14T07:09:17;101855.81;;;21.51;42.36
72157;BME280;60035;52.122;5.406;2023-06-14T07:11:47;101853.72;;;21.57;42.31
72157;BME280;60035;52.122;5.406;2023-06-14T07:14:13;101855.19;;;21.61;41.72
72157;BME280;60035;52.122;5.406;2023-06-14T07:16:42;101863.41;;;21.70;41.95
72157;BME280;60035;52.122;5.406;2023-06-14T07:19:09;101859.13;;;21.83;41.99
72157;BME280;60035;52.122;5.406;2023-06-14T07:21:36;101860.16;;;21.95;41.40
72157;BME280;60035;52.122;5.406;2023-06-14T07:24:06;101860.88;;;21.97;40.98
72157;BME280;60035;52.122;5.406;2023-06-14T07:26:34;101862.19;;;22.04;40.45
72157;BME280;60035;52.122;5.406;2023-06-14T07:29:01;101868.88;;;22.08;40.41
72157;BME280;60035;52.122;5.406;2023-06-14T07:31:28;101869.44;;;22.13;39.97
72157;BME280;60035;52.122;5.406;2023-06-14T07:33:54;101874.16;;;22.21;39.52
72157;BME280;60035;52.122;5.406;2023-06-14T07:36:23;101876.28;;;22.29;39.59
72157;BME280;60035;52.122;5.406;2023-06-14T07:38:50;101869.69;;;22.38;39.54
72157;BME280;60035;52.122;5.406;2023-06-14T07:41:16;101877.22;;;22.42;39.12
72157;BME280;60035;52.122;5.406;2023-06-14T07:43:43;101882.81;;;22.51;39.21
72157;BME280;60035;52.122;5.406;2023-06-14T07:46:09;101881.47;;;22.58;39.12
72157;BME280;60035;52.122;5.406;2023-06-14T07:48:36;101881.81;;;22.66;39.15
72157;BME280;60035;52.122;5.406;2023-06-14T07:51:03;101884.13;;;22.71;38.82
72157;BME280;60035;52.122;5.406;2023-06-14T07:53:32;101883.31;;;22.83;38.37
72157;BME280;60035;52.122;5.406;2023-06-14T07:55:59;101894.97;;;22.92;37.98
72157;BME280;60035;52.122;5.406;2023-06-14T07:58:26;101886.31;;;23.04;38.07
72157;BME280;60035;52.122;5.406;2023-06-14T08:00:52;101892.44;;;23.18;37.67
72157;BME280;60035;52.122;5.406;2023-06-14T08:03:19;101886.91;;;23.22;37.56
72157;BME280;60035;52.122;5.406;2023-06-14T08:05:49;101890.47;;;23.34;37.21
72157;BME280;60035;52.122;5.406;2023-06-14T08:08:16;101891.72;;;23.41;36.59
72157;BME280;60035;52.122;5.406;2023-06-14T08:10:42;101893.19;;;23.45;36.04
72157;BME280;60035;52.122;5.406;2023-06-14T08:13:09;101893.53;;;23.54;35.64
72157;BME280;60035;52.122;5.406;2023-06-14T08:15:36;101885.25;;;23.60;35.46
72157;BME280;60035;52.122;5.406;2023-06-14T08:18:02;101891.53;;;23.70;35.08
72157;BME280;60035;52.122;5.406;2023-06-14T08:20:32;101884.94;;;23.77;34.64
72157;BME280;60035;52.122;5.406;2023-06-14T08:23:02;101892.34;;;23.84;34.43
72157;BME280;60035;52.122;5.406;2023-06-14T08:25:30;101887.84;;;23.86;34.70
72157;BME280;60035;52.122;5.406;2023-06-14T08:27:59;101888.19;;;23.94;34.50
72157;BME280;60035;52.122;5.406;2023-06-14T08:30:26;101890.91;;;24.05;34.11
72157;BME280;60035;52.122;5.406;2023-06-14T08:32:53;101890.13;;;24.16;34.16
72157;BME280;60035;52.122;5.406;2023-06-14T08:35:41;101887.38;;;24.31;33.81
72157;BME280;60035;52.122;5.406;2023-06-14T08:38:07;101887.88;;;24.36;33.11
72157;BME280;60035;52.122;5.406;2023-06-14T08:40:36;101879.75;;;24.52;33.23
72157;BME280;60035;52.122;5.406;2023-06-14T08:43:03;101883.19;;;24.65;32.41
72157;BME280;60035;52.122;5.406;2023-06-14T08:45:30;101881.19;;;24.69;32.56
72157;BME280;60035;52.122;5.406;2023-06-14T08:47:58;101884.44;;;24.84;32.33
72157;BME280;60035;52.122;5.406;2023-06-14T08:50:27;101887.34;;;24.92;31.64
72157;BME280;60035;52.122;5.406;2023-06-14T08:53:01;101884.97;;;25.00;31.38
72157;BME280;60035;52.122;5.406;2023-06-14T08:55:31;101892.25;;;25.08;31.26
72157;BME280;60035;52.122;5.406;2023-06-14T08:58:03;101882.41;;;25.11;31.30
72157;BME280;60035;52.122;5.406;2023-06-14T09:00:31;101869.78;;;25.17;31.14
72157;BME280;60035;52.122;5.406;2023-06-14T09:03:00;101882.88;;;25.17;29.86
72157;BME280;60035;52.122;5.406;2023-06-14T09:05:27;101887.63;;;25.11;29.63
72157;BME280;60035;52.122;5.406;2023-06-14T09:07:54;101893.94;;;25.09;29.49
72157;BME280;60035;52.122;5.406;2023-06-14T09:10:22;101887.88;;;25.08;29.52
72157;BME280;60035;52.122;5.406;2023-06-14T09:12:51;101893.13;;;25.08;30.01
72157;BME280;60035;52.122;5.406;2023-06-14T09:15:17;101883.63;;;25.30;29.90
72157;BME280;60035;52.122;5.406;2023-06-14T09:17:44;101893.00;;;25.46;29.83
72157;BME280;60035;52.122;5.406;2023-06-14T09:20:10;101892.97;;;25.57;29.72
72157;BME280;60035;52.122;5.406;2023-06-14T09:22:40;101891.44;;;25.66;29.28
72157;BME280;60035;52.122;5.406;2023-06-14T09:25:07;101886.78;;;25.81;29.35
72157;BME280;60035;52.122;5.406;2023-06-14T09:27:34;101892.75;;;25.94;28.96
72157;BME280;60035;52.122;5.406;2023-06-14T09:30:06;101891.31;;;26.01;29.05
72157;BME280;60035;52.122;5.406;2023-06-14T09:32:38;101895.28;;;26.18;29.14
72157;BME280;60035;52.122;5.406;2023-06-14T09:35:08;101899.78;;;26.27;29.17
72157;BME280;60035;52.122;5.406;2023-06-14T09:37:35;101899.53;;;26.31;28.82
72157;BME280;60035;52.122;5.406;2023-06-14T09:40:05;101894.69;;;26.47;28.13
72157;BME280;60035;52.122;5.406;2023-06-14T09:42:33;101900.34;;;26.42;27.24
72157;BME280;60035;52.122;5.406;2023-06-14T09:45:03;101898.47;;;26.33;27.20
72157;BME280;60035;52.122;5.406;2023-06-14T09:47:31;101895.78;;;26.44;27.21
72157;BME280;60035;52.122;5.406;2023-06-14T09:49:58;101891.31;;;26.56;27.48
72157;BME280;60035;52.122;5.406;2023-06-14T09:52:29;101895.47;;;26.70;27.86
72157;BME280;60035;52.122;5.406;2023-06-14T09:54:56;101893.56;;;26.72;28.02
72157;BME280;60035;52.122;5.406;2023-06-14T09:57:26;101896.41;;;26.81;27.92
72157;BME280;60035;52.122;5.406;2023-06-14T09:59:57;101891.34;;;26.89;27.58
72157;BME280;60035;52.122;5.406;2023-06-14T10:02:29;101884.72;;;27.06;27.55
72157;BME280;60035;52.122;5.406;2023-06-14T10:05:06;101894.31;;;27.17;27.47
72157;BME280;60035;52.122;5.406;2023-06-14T10:07:39;101889.31;;;27.14;27.55
72157;BME280;60035;52.122;5.406;2023-06-14T10:10:07;101894.00;;;27.31;27.22
72157;BME280;60035;52.122;5.406;2023-06-14T10:12:34;101880.25;;;27.27;26.99
72157;BME280;60035;52.122;5.406;2023-06-14T10:15:01;101878.03;;;27.44;26.74
72157;BME280;60035;52.122;5.406;2023-06-14T10:20:19;101894.34;;;27.38;25.58
72157;BME280;60035;52.122;5.406;2023-06-14T10:23:03;101893.03;;;27.32;25.12
72157;BME280;60035;52.122;5.406;2023-06-14T10:25:33;101896.00;;;27.39;25.30
72157;BME280;60035;52.122;5.406;2023-06-14T10:31:05;101887.72;;;27.74;24.71
72157;BME280;60035;52.122;5.406;2023-06-14T10:33:32;101875.41;;;27.85;24.34
72157;BME280;60035;52.122;5.406;2023-06-14T10:39:04;101879.56;;;28.18;24.73
72157;BME280;60035;52.122;5.406;2023-06-14T10:41:35;101868.19;;;28.18;24.99
72157;BME280;60035;52.122;5.406;2023-06-14T10:47:09;101869.88;;;28.48;25.87
72157;BME280;60035;52.122;5.406;2023-06-14T10:49:49;101873.25;;;28.70;25.77
72157;BME280;60035;52.122;5.406;2023-06-14T10:52:20;101870.56;;;28.89;24.96
72157;BME280;60035;52.122;5.406;2023-06-14T10:57:33;101880.25;;;28.50;24.78
72157;BME280;60035;52.122;5.406;2023-06-14T11:00:20;101879.59;;;28.38;25.46
72157;BME280;60035;52.122;5.406;2023-06-14T11:03:29;101871.25;;;28.42;25.74
72157;BME280;60035;52.122;5.406;2023-06-14T11:05:58;101875.56;;;28.83;25.04
72157;BME280;60035;52.122;5.406;2023-06-14T11:11:10;101864.72;;;28.96;24.26
72157;BME280;60035;52.122;5.406;2023-06-14T11:13:41;101873.47;;;29.06;25.03
72157;BME280;60035;52.122;5.406;2023-06-14T11:16:13;101871.66;;;29.06;24.91
72157;BME280;60035;52.122;5.406;2023-06-14T11:18:40;101877.72;;;29.36;23.99
72157;BME280;60035;52.122;5.406;2023-06-14T11:21:07;101869.63;;;29.48;23.95
72157;BME280;60035;52.122;5.406;2023-06-14T11:23:35;101867.31;;;29.35;24.70
72157;BME280;60035;52.122;5.406;2023-06-14T11:26:03;101872.94;;;29.50;24.42
72157;BME280;60035;52.122;5.406;2023-06-14T11:28:40;101872.22;;;29.57;24.48
72157;BME280;60035;52.122;5.406;2023-06-14T11:31:07;101868.59;;;29.31;24.00
72157;BME280;60035;52.122;5.406;2023-06-14T11:33:34;101863.22;;;29.03;23.93
72157;BME280;60035;52.122;5.406;2023-06-14T11:36:06;101854.72;;;29.09;23.82
72157;BME280;60035;52.122;5.406;2023-06-14T11:38:36;101858.84;;;29.21;23.85
72157;BME280;60035;52.122;5.406;2023-06-14T11:41:03;101862.00;;;29.45;23.81
72157;BME280;60035;52.122;5.406;2023-06-14T11:43:32;101840.06;;;29.72;23.98
72157;BME280;60035;52.122;5.406;2023-06-14T11:46:01;101849.53;;;29.65;23.99
72157;BME280;60035;52.122;5.406;2023-06-14T11:48:41;101851.19;;;29.66;24.15
72157;BME280;60035;52.122;5.406;2023-06-14T11:51:08;101849.38;;;29.38;24.35
72157;BME280;60035;52.122;5.406;2023-06-14T11:53:35;101842.06;;;29.13;23.47
72157;BME280;60035;52.122;5.406;2023-06-14T11:56:02;101852.78;;;29.11;24.30
72157;BME280;60035;52.122;5.406;2023-06-14T11:58:29;101863.31;;;29.31;24.26
72157;BME280;60035;52.122;5.406;2023-06-14T12:00:56;101852.31;;;29.63;23.70
72157;BME280;60035;52.122;5.406;2023-06-14T12:03:24;101864.44;;;29.56;23.69
72157;BME280;60035;52.122;5.406;2023-06-14T12:06:07;101860.09;;;29.65;23.38
72157;BME280;60035;52.122;5.406;2023-06-14T12:08:35;101848.97;;;30.17;23.11
72157;BME280;60035;52.122;5.406;2023-06-14T12:11:07;101851.31;;;30.20;22.80
72157;BME280;60035;52.122;5.406;2023-06-14T12:13:40;101849.03;;;30.07;23.38
72157;BME280;60035;52.122;5.406;2023-06-14T12:16:08;101851.91;;;29.96;23.01
72157;BME280;60035;52.122;5.406;2023-06-14T12:18:36;101852.81;;;30.04;23.33
72157;BME280;60035;52.122;5.406;2023-06-14T12:21:07;101847.47;;;30.14;23.69
72157;BME280;60035;52.122;5.406;2023-06-14T12:23:47;101858.53;;;30.46;23.90
72157;BME280;60035;52.122;5.406;2023-06-14T12:26:15;101852.91;;;30.31;23.49
72157;BME280;60035;52.122;5.406;2023-06-14T12:28:44;101844.59;;;30.25;22.59
72157;BME280;60035;52.122;5.406;2023-06-14T12:31:12;101854.03;;;30.10;23.28
72157;BME280;60035;52.122;5.406;2023-06-14T12:33:40;101867.63;;;30.33;23.34
72157;BME280;60035;52.122;5.406;2023-06-14T12:36:08;101852.31;;;30.37;22.99
72157;BME280;60035;52.122;5.406;2023-06-14T12:38:38;101850.50;;;30.55;23.09
72157;BME280;60035;52.122;5.406;2023-06-14T12:41:04;101856.91;;;30.71;22.35
72157;BME280;60035;52.122;5.406;2023-06-14T12:43:31;101857.16;;;30.60;22.92
72157;BME280;60035;52.122;5.406;2023-06-14T12:46:00;101859.09;;;31.02;22.48
72157;BME280;60035;52.122;5.406;2023-06-14T12:48:26;101847.84;;;31.26;22.02
72157;BME280;60035;52.122;5.406;2023-06-14T12:50:57;101854.81;;;31.27;21.74
72157;BME280;60035;52.122;5.406;2023-06-14T12:53:24;101860.03;;;31.11;21.89
72157;BME280;60035;52.122;5.406;2023-06-14T12:55:51;101849.81;;;31.16;22.02
72157;BME280;60035;52.122;5.406;2023-06-14T12:58:18;101854.34;;;31.32;21.21
72157;BME280;60035;52.122;5.406;2023-06-14T13:00:47;101856.53;;;31.45;21.12
72157;BME280;60035;52.122;5.406;2023-06-14T13:03:13;101860.75;;;31.55;20.73
72157;BME280;60035;52.122;5.406;2023-06-14T13:05:41;101862.16;;;31.76;20.44
72157;BME280;60035;52.122;5.406;2023-06-14T13:08:07;101871.56;;;31.70;20.46
72157;BME280;60035;52.122;5.406;2023-06-14T13:10:35;101866.81;;;31.82;19.99
72157;BME280;60035;52.122;5.406;2023-06-14T13:13:02;101868.06;;;31.70;20.61